Time;durP1;ratioP1;P1;durP2;ratioP2;P2;SDS_P1;SDS_P2;PMS_P1;PMS_P2;Temp;Humidity;BMP_temperature;BMP_pressure;BME280_temperature;BME280_humidity;BME280_pressure;Samples;Min_cycle;Max_cycle;Signal;HPM_P1;HPM_P2
2022/01/31 00:02:14;;;;;;;0.93;0.57;;;22.70;53.60;;;;;;5037212;28;20049;-76
2022/01/31 00:04:42;;;;;;;0.75;0.70;;;22.80;53.70;;;;;;5037359;28;20053;-76
2022/01/31 00:07:10;;;;;;;0.60;0.60;;;22.90;53.90;;;;;;5036900;28;20124;-75
2022/01/31 00:09:37;;;;;;;0.98;0.70;;;22.80;53.90;;;;;;5037208;28;20062;-75
2022/01/31 00:12:07;;;;;;;0.50;0.50;;;22.80;53.80;;;;;;5037065;28;20101;-76
2022/01/31 00:14:46;;;;;;;0.50;0.50;;;22.70;54.00;;;;;;5037105;28;20041;-76
2022/01/31 00:17:14;;;;;;;0.38;0.38;;;22.80;54.30;;;;;;5037069;28;20072;-76
2022/01/31 00:19:41;;;;;;;1.58;0.60;;;22.70;54.40;;;;;;5037228;28;20045;-75
2022/01/31 00:22:11;;;;;;;1.75;0.70;;;22.70;54.30;;;;;;5036735;28;20068;-75
2022/01/31 00:24:38;;;;;;;1.33;0.90;;;22.70;54.30;;;;;;5037108;28;20060;-76
2022/01/31 00:27:06;;;;;;;0.50;0.50;;;22.60;54.40;;;;;;5036648;28;20059;-76
2022/01/31 00:29:32;;;;;;;0.65;0.60;;;22.70;54.60;;;;;;5036844;28;20045;-76
2022/01/31 00:31:58;;;;;;;0.82;0.75;;;22.80;54.50;;;;;;5036048;28;20042;-75
2022/01/31 00:34:25;;;;;;;0.50;0.50;;;22.70;54.40;;;;;;5036892;28;20029;-75
2022/01/31 00:36:54;;;;;;;2.10;0.63;;;22.60;54.50;;;;;;5019261;28;20046;-76
2022/01/31 00:39:21;;;;;;;1.63;0.70;;;22.60;54.70;;;;;;5036069;28;20076;-76
2022/01/31 00:41:47;;;;;;;1.15;0.70;;;22.60;54.80;;;;;;5035877;28;20042;-75
2022/01/31 00:46:45;;;;;;;0.65;0.65;;;22.40;54.90;;;;;;5036511;28;20072;-76
2022/01/31 00:49:22;;;;;;;0.80;0.80;;;22.50;55.00;;;;;;5036695;28;20040;-76
2022/01/31 00:51:49;;;;;;;1.23;0.63;;;22.20;54.90;;;;;;5019428;28;20058;-76
2022/01/31 00:54:15;;;;;;;0.57;0.57;;;22.40;55.10;;;;;;5035929;28;20052;-75
2022/01/31 00:56:41;;;;;;;0.52;0.52;;;22.10;55.10;;;;;;5045189;28;20041;-76
2022/01/31 00:59:07;;;;;;;0.98;0.43;;;22.20;54.90;;;;;;5056398;28;20045;-75
2022/01/31 01:01:33;;;;;;;0.60;0.60;;;22.00;55.10;;;;;;5055451;28;20045;-76
2022/01/31 01:03:59;;;;;;;0.70;0.52;;;22.00;55.40;;;;;;5055451;28;20037;-76
2022/01/31 01:06:26;;;;;;;0.45;0.43;;;21.90;55.50;;;;;;5056103;28;20572;-75
2022/01/31 01:08:52;;;;;;;0.50;0.50;;;21.80;55.40;;;;;;5056331;28;20033;-77
2022/01/31 01:11:18;;;;;;;0.60;0.60;;;21.90;55.60;;;;;;5055772;28;20057;-75
2022/01/31 01:13:44;;;;;;;0.70;0.63;;;21.80;55.40;;;;;;5055559;28;20045;-76
2022/01/31 01:16:10;;;;;;;0.75;0.75;;;21.90;55.50;;;;;;5056190;28;20053;-75
2022/01/31 01:18:36;;;;;;;0.63;0.63;;;21.90;55.50;;;;;;5055406;28;20043;-76
2022/01/31 01:21:03;;;;;;;0.50;0.50;;;21.80;55.40;;;;;;5055355;28;20049;-76
2022/01/31 01:23:29;;;;;;;0.65;0.55;;;21.90;55.40;;;;;;5056177;28;20096;-76
2022/01/31 01:25:55;;;;;;;0.73;0.70;;;21.80;55.20;;;;;;5055320;28;20037;-76
2022/01/31 01:28:23;;;;;;;0.77;0.73;;;21.70;55.20;;;;;;5038950;28;20038;-76
2022/01/31 01:30:49;;;;;;;1.00;0.40;;;21.70;55.10;;;;;;5038816;28;20068;-76
2022/01/31 01:33:20;;;;;;;0.70;0.57;;;21.80;55.10;;;;;;5036907;28;20179;-77
2022/01/31 01:35:51;;;;;;;0.40;0.40;;;21.80;55.20;;;;;;5055097;28;20033;-76
2022/01/31 01:38:19;;;;;;;0.50;0.50;;;21.70;55.10;;;;;;5055575;28;20101;-76
2022/01/31 01:40:47;;;;;;;0.57;0.57;;;21.80;55.00;;;;;;5038499;28;20088;-76
2022/01/31 01:43:16;;;;;;;0.55;0.50;;;21.80;54.80;;;;;;5055011;28;20029;-75
2022/01/31 01:45:43;;;;;;;0.75;0.57;;;21.80;54.90;;;;;;5054998;28;20104;-75
2022/01/31 01:48:12;;;;;;;0.82;0.82;;;21.80;54.80;;;;;;5054867;28;20033;-76
2022/01/31 01:50:39;;;;;;;0.60;0.60;;;21.80;54.80;;;;;;5055407;28;20063;-76
2022/01/31 01:53:07;;;;;;;1.45;0.65;;;21.90;55.00;;;;;;5057976;28;20042;-76
2022/01/31 01:55:35;;;;;;;0.60;0.60;;;21.70;54.50;;;;;;5059421;28;20042;-77
2022/01/31 01:58:04;;;;;;;0.80;0.80;;;21.80;54.60;;;;;;5058958;28;20121;-75
2022/01/31 02:00:49;;;;;;;0.77;0.77;;;21.90;54.40;;;;;;5042162;28;20041;-76
2022/01/31 02:03:17;;;;;;;0.60;0.60;;;21.80;54.30;;;;;;5058600;28;20117;-75
2022/01/31 02:05:45;;;;;;;0.65;0.60;;;21.90;54.10;;;;;;5058452;28;20044;-78
2022/01/31 02:08:13;;;;;;;0.70;0.70;;;22.10;53.90;;;;;;5058618;28;20052;-75
2022/01/31 02:10:41;;;;;;;1.65;0.63;;;22.00;53.70;;;;;;5058964;28;20064;-76
2022/01/31 02:13:39;;;;;;;0.70;0.70;;;22.00;53.70;;;;;;5040815;28;20037;-75
2022/01/31 02:16:07;;;;;;;0.60;0.60;;;22.00;53.80;;;;;;5058864;28;20129;-76
2022/01/31 02:18:53;;;;;;;0.60;0.60;;;22.00;54.20;;;;;;5058463;28;20064;-76
2022/01/31 02:21:38;;;;;;;0.77;0.57;;;22.00;54.20;;;;;;5058640;28;20037;-75
2022/01/31 02:24:24;;;;;;;0.60;0.60;;;21.80;54.50;;;;;;5058493;28;20092;-75
2022/01/31 02:27:13;;;;;;;0.60;0.52;;;21.90;54.70;;;;;;5057585;28;20045;-75
2022/01/31 02:29:40;;;;;;;0.60;0.60;;;21.80;54.70;;;;;;5041869;28;20030;-76
2022/01/31 02:32:06;;;;;;;0.63;0.50;;;21.70;54.70;;;;;;5057898;28;20037;-75
2022/01/31 02:34:32;;;;;;;0.75;0.50;;;21.70;54.60;;;;;;5057974;28;20091;-76
2022/01/31 02:36:59;;;;;;;0.50;0.50;;;21.70;54.70;;;;;;5041494;28;20037;-76
2022/01/31 02:39:25;;;;;;;0.40;0.40;;;21.80;54.70;;;;;;5058124;28;20060;-75
2022/01/31 02:41:51;;;;;;;0.40;0.40;;;21.80;54.50;;;;;;5057690;28;20045;-76
2022/01/31 02:44:18;;;;;;;0.63;0.63;;;21.80;54.30;;;;;;5058067;28;20060;-76
2022/01/31 02:47:10;;;;;;;0.50;0.50;;;21.70;54.20;;;;;;5041159;28;20128;-76
2022/01/31 02:49:46;;;;;;;0.70;0.60;;;21.80;54.40;;;;;;5041337;28;20108;-75
2022/01/31 02:52:14;;;;;;;0.95;0.40;;;21.70;54.50;;;;;;5057689;28;20037;-74
2022/01/31 02:54:41;;;;;;;0.30;0.30;;;21.60;54.60;;;;;;5041191;28;20107;-75
2022/01/31 02:57:08;;;;;;;0.73;0.50;;;21.40;54.80;;;;;;5058172;28;20101;-75
2022/01/31 02:59:34;;;;;;;0.85;0.57;;;21.50;55.00;;;;;;5041222;28;20099;-76
2022/01/31 03:02:00;;;;;;;0.57;0.50;;;21.50;54.90;;;;;;5057957;28;20041;-76
2022/01/31 03:04:26;;;;;;;0.50;0.50;;;21.40;54.80;;;;;;5057006;28;20037;-76
2022/01/31 03:06:55;;;;;;;0.60;0.60;;;21.50;54.80;;;;;;5057982;28;20045;-75
2022/01/31 03:09:23;;;;;;;0.57;0.57;;;21.50;54.90;;;;;;5040667;28;20041;-76
2022/01/31 03:11:52;;;;;;;0.60;0.60;;;21.50;54.80;;;;;;5040858;28;20048;-76
2022/01/31 03:14:22;;;;;;;0.75;0.65;;;21.50;54.80;;;;;;5040952;28;20041;-76
2022/01/31 03:16:52;;;;;;;0.50;0.50;;;21.30;54.70;;;;;;5040587;28;20110;-76
2022/01/31 03:19:32;;;;;;;0.98;0.68;;;21.40;54.70;;;;;;5040931;28;20108;-75
2022/01/31 03:22:00;;;;;;;0.73;0.63;;;21.50;54.60;;;;;;5040663;28;20049;-75
2022/01/31 03:24:26;;;;;;;0.65;0.60;;;21.50;54.50;;;;;;5057811;28;20046;-76
2022/01/31 03:26:53;;;;;;;1.60;0.73;;;21.40;54.10;;;;;;5057606;28;20056;-76
2022/01/31 03:29:19;;;;;;;1.02;0.60;;;21.50;54.20;;;;;;5057900;28;20056;-75
2022/01/31 03:31:45;;;;;;;0.73;0.68;;;21.50;54.20;;;;;;5057548;28;20045;-75
2022/01/31 03:34:11;;;;;;;0.50;0.50;;;21.40;54.10;;;;;;5057557;28;20080;-75
2022/01/31 03:36:38;;;;;;;1.08;0.30;;;21.50;54.00;;;;;;5056858;28;20068;-74
2022/01/31 03:39:07;;;;;;;1.27;0.70;;;21.60;53.80;;;;;;5056788;28;20037;-76
2022/01/31 03:41:34;;;;;;;0.73;0.38;;;21.70;53.00;;;;;;5056875;28;20056;-75
2022/01/31 03:44:01;;;;;;;0.52;0.50;;;21.50;53.30;;;;;;5056500;28;20034;-76
2022/01/31 03:46:30;;;;;;;2.40;0.60;;;21.60;53.30;;;;;;5056304;28;20068;-75
2022/01/31 03:48:56;;;;;;;0.70;0.70;;;21.60;53.90;;;;;;5056834;28;20040;-75
2022/01/31 03:51:39;;;;;;;0.98;0.70;;;21.40;54.00;;;;;;5039742;28;20048;-75
2022/01/31 03:54:06;;;;;;;1.17;0.52;;;21.40;54.20;;;;;;5039828;28;20025;-76
2022/01/31 03:56:33;;;;;;;0.93;0.70;;;21.20;54.20;;;;;;5056571;28;20045;-76
2022/01/31 03:59:20;;;;;;;0.63;0.60;;;21.20;54.20;;;;;;5007088;28;20629;-76
2022/01/31 04:01:46;;;;;;;0.65;0.57;;;21.20;54.30;;;;;;5039957;28;20043;-75
2022/01/31 04:04:14;;;;;;;1.35;0.77;;;21.20;54.40;;;;;;5057088;28;20034;-76
2022/01/31 04:06:41;;;;;;;4.25;0.77;;;21.10;54.80;;;;;;5056950;28;20053;-75
2022/01/31 04:09:08;;;;;;;0.82;0.82;;;21.30;55.30;;;;;;5056251;28;20049;-75
2022/01/31 04:11:34;;;;;;;1.38;0.77;;;21.10;55.90;;;;;;5057039;28;20077;-75
2022/01/31 04:14:00;;;;;;;0.60;0.50;;;21.10;56.40;;;;;;5056695;28;20044;-75
2022/01/31 04:16:26;;;;;;;1.52;0.75;;;21.10;57.00;;;;;;5056044;28;20057;-76
2022/01/31 04:18:52;;;;;;;1.45;0.65;;;21.10;57.50;;;;;;5056302;28;20037;-75
2022/01/31 04:21:18;;;;;;;2.33;0.70;;;20.90;57.70;;;;;;5056681;28;20049;-75
2022/01/31 04:23:46;;;;;;;0.68;0.68;;;21.10;58.10;;;;;;5039388;28;20056;-75
2022/01/31 04:26:14;;;;;;;0.75;0.43;;;21.00;57.90;;;;;;5056502;28;20033;-75
2022/01/31 04:29:01;;;;;;;1.23;0.70;;;21.00;58.10;;;;;;5056612;28;20057;-75
2022/01/31 04:31:44;;;;;;;1.08;0.70;;;21.10;58.10;;;;;;5056783;28;20041;-75
2022/01/31 04:34:10;;;;;;;2.25;0.70;;;21.00;58.00;;;;;;5056494;28;20029;-75
2022/01/31 04:36:36;;;;;;;0.73;0.70;;;21.10;58.20;;;;;;5056344;28;20037;-75
2022/01/31 04:39:03;;;;;;;1.02;0.80;;;21.10;58.10;;;;;;5056744;28;20035;-75
2022/01/31 04:41:30;;;;;;;1.63;0.90;;;21.10;57.90;;;;;;5056494;28;20068;-75
2022/01/31 04:44:00;;;;;;;0.80;0.60;;;21.20;57.80;;;;;;5055422;28;20029;-75
2022/01/31 04:46:26;;;;;;;0.65;0.60;;;21.20;57.70;;;;;;5056154;28;20112;-76
2022/01/31 04:48:52;;;;;;;2.60;0.80;;;21.40;57.80;;;;;;5056485;28;20033;-75
2022/01/31 04:51:18;;;;;;;1.67;0.77;;;21.50;57.30;;;;;;5056277;28;20045;-75
2022/01/31 04:53:44;;;;;;;0.60;0.60;;;21.50;56.80;;;;;;5055077;28;20030;-75
2022/01/31 04:56:11;;;;;;;1.05;0.95;;;21.70;56.50;;;;;;5054511;28;20037;-75
2022/01/31 04:58:37;;;;;;;1.20;1.00;;;21.80;56.00;;;;;;5054522;28;20037;-75
2022/01/31 05:01:04;;;;;;;1.05;0.95;;;21.80;55.60;;;;;;5054360;28;20061;-74
2022/01/31 05:03:30;;;;;;;1.15;1.05;;;22.00;58.60;;;;;;5053928;28;20060;-75
2022/01/31 05:05:59;;;;;;;0.82;0.70;;;22.10;60.50;;;;;;5054406;28;20041;-76
2022/01/31 05:08:27;;;;;;;4.95;1.30;;;22.40;62.60;;;;;;5038250;28;20044;-75
2022/01/31 05:10:53;;;;;;;0.68;0.68;;;22.60;62.50;;;;;;5055455;28;20053;-74
2022/01/31 05:13:19;;;;;;;1.20;0.82;;;22.70;57.30;;;;;;5055383;28;20056;-74
2022/01/31 05:15:46;;;;;;;0.50;0.50;;;22.50;51.10;;;;;;5055481;28;20045;-73
2022/01/31 05:18:12;;;;;;;0.85;0.70;;;22.40;50.10;;;;;;5055531;28;20100;-74
2022/01/31 05:20:39;;;;;;;0.60;0.60;;;22.50;50.90;;;;;;5055642;28;20041;-74
2022/01/31 05:23:06;;;;;;;2.22;0.73;;;22.40;49.70;;;;;;5055324;28;20565;-75
2022/01/31 05:25:33;;;;;;;0.70;0.70;;;22.40;50.00;;;;;;5055418;28;20047;-73
2022/01/31 05:27:59;;;;;;;0.63;0.63;;;22.40;50.70;;;;;;5058414;28;20041;-73
2022/01/31 05:30:25;;;;;;;1.63;1.20;;;22.50;51.30;;;;;;5058343;28;20052;-74
2022/01/31 05:32:53;;;;;;;2.28;1.20;;;22.40;51.70;;;;;;5059425;28;20067;-73
2022/01/31 05:35:19;;;;;;;2.00;1.50;;;22.40;51.90;;;;;;5058880;28;20110;-74
2022/01/31 05:37:45;;;;;;;1.90;1.25;;;22.50;52.30;;;;;;5058887;28;20038;-73
2022/01/31 05:40:12;;;;;;;1.55;0.90;;;22.40;52.50;;;;;;5058719;28;20124;-74
2022/01/31 05:42:38;;;;;;;2.25;0.82;;;22.50;53.10;;;;;;5058994;28;20056;-74
2022/01/31 05:45:06;;;;;;;1.83;1.02;;;22.50;53.10;;;;;;5059021;28;20105;-76
2022/01/31 05:47:34;;;;;;;3.58;1.77;;;22.50;53.00;;;;;;5058916;28;20041;-74
2022/01/31 05:50:00;;;;;;;1.35;1.00;;;22.50;53.20;;;;;;5058971;28;20037;-74
2022/01/31 05:52:26;;;;;;;4.35;2.10;;;22.40;55.90;;;;;;5058902;28;20106;-74
2022/01/31 05:54:52;;;;;;;3.42;1.77;;;22.40;56.30;;;;;;5056618;28;20052;-74
2022/01/31 05:57:18;;;;;;;1.80;1.15;;;22.30;49.10;;;;;;5058402;28;20041;-76
2022/01/31 05:59:44;;;;;;;2.63;1.23;;;22.20;47.10;;;;;;5056838;28;20067;-73
2022/01/31 06:02:10;;;;;;;4.30;1.45;;;22.40;44.10;;;;;;5058192;28;20041;-75
2022/01/31 06:04:36;;;;;;;2.50;1.48;;;22.40;44.30;;;;;;5054656;28;20041;-74
2022/01/31 06:07:03;;;;;;;1.42;0.93;;;22.40;43.20;;;;;;5043979;28;20109;-74
2022/01/31 06:09:31;;;;;;;0.82;0.80;;;22.50;43.80;;;;;;5047907;28;20097;-75
2022/01/31 06:12:01;;;;;;;1.00;0.88;;;22.60;43.00;;;;;;5047014;28;20144;-74
2022/01/31 06:14:27;;;;;;;4.32;2.03;;;22.50;45.10;;;;;;5050334;28;20041;-73
2022/01/31 06:16:54;;;;;;;3.03;2.00;;;22.60;42.20;;;;;;5049779;28;20045;-73
2022/01/31 06:19:20;;;;;;;4.72;2.33;;;22.50;40.90;;;;;;5047294;28;20105;-73
2022/01/31 06:21:46;;;;;;;2.35;1.75;;;22.40;38.90;;;;;;5047652;28;20049;-73
2022/01/31 06:24:14;;;;;;;1.60;1.50;;;22.40;41.00;;;;;;5049267;28;20045;-72
2022/01/31 06:26:43;;;;;;;3.40;1.85;;;22.40;40.50;;;;;;5052577;28;20041;-73
2022/01/31 06:29:20;;;;;;;7.60;3.22;;;22.40;40.50;;;;;;5057197;28;20041;-73
2022/01/31 06:31:46;;;;;;;3.85;1.63;;;22.50;52.00;;;;;;5055979;28;20045;-75
2022/01/31 06:34:13;;;;;;;4.50;1.73;;;22.60;52.70;;;;;;5049392;28;20041;-73
2022/01/31 06:36:39;;;;;;;2.55;1.15;;;22.60;52.80;;;;;;5038210;28;20041;-74
2022/01/31 06:39:06;;;;;;;1.73;1.45;;;22.50;53.30;;;;;;5048108;28;20030;-74
2022/01/31 06:41:32;;;;;;;2.53;1.10;;;22.60;58.20;;;;;;5055010;28;20100;-74
2022/01/31 06:43:58;;;;;;;3.55;1.65;;;22.60;52.50;;;;;;5057952;28;20037;-73
2022/01/31 06:46:24;;;;;;;5.22;1.90;;;22.70;54.70;;;;;;5057792;28;20041;-74
2022/01/31 06:48:50;;;;;;;4.68;2.15;;;22.60;53.80;;;;;;5057697;28;20033;-73
2022/01/31 06:51:18;;;;;;;2.63;1.67;;;22.60;54.00;;;;;;5057872;28;20366;-74
2022/01/31 06:53:48;;;;;;;4.93;2.75;;;22.60;54.60;;;;;;5057862;28;20045;-77
2022/01/31 06:56:16;;;;;;;6.32;2.60;;;22.70;55.60;;;;;;5057051;28;20065;-76
2022/01/31 06:58:43;;;;;;;4.50;2.45;;;22.50;56.90;;;;;;5040533;28;20060;-74
2022/01/31 07:01:09;;;;;;;2.97;1.25;;;22.60;56.00;;;;;;5057609;28;20041;-76
2022/01/31 07:03:36;;;;;;;3.67;1.50;;;22.70;56.00;;;;;;5057655;28;20045;-78
2022/01/31 07:06:03;;;;;;;5.38;2.22;;;22.70;55.80;;;;;;5057492;28;20041;-77
2022/01/31 07:08:29;;;;;;;5.25;2.42;;;22.80;55.60;;;;;;5056552;28;20065;-78
2022/01/31 07:10:55;;;;;;;5.25;2.35;;;22.90;55.70;;;;;;5057161;28;20083;-75
2022/01/31 07:13:39;;;;;;;4.45;2.55;;;22.70;55.70;;;;;;5057435;28;20101;-74
2022/01/31 07:16:06;;;;;;;3.15;2.25;;;22.70;55.80;;;;;;5053328;28;20041;-76
2022/01/31 07:18:34;;;;;;;4.72;2.55;;;22.90;56.30;;;;;;5046041;28;20056;-75
2022/01/31 07:21:01;;;;;;;7.03;3.28;;;22.80;56.20;;;;;;5048675;28;20109;-76
2022/01/31 07:23:29;;;;;;;6.70;3.20;;;22.90;56.60;;;;;;5046056;28;20049;-74
2022/01/31 07:25:56;;;;;;;5.85;3.22;;;22.70;56.70;;;;;;5045734;28;20045;-75
2022/01/31 07:28:22;;;;;;;4.90;2.42;;;22.90;56.40;;;;;;5050371;28;20046;-76
2022/01/31 07:30:52;;;;;;;4.82;1.90;;;22.70;57.00;;;;;;5045730;28;20135;-76
2022/01/31 07:33:19;;;;;;;3.33;2.30;;;22.60;57.20;;;;;;5051370;28;20064;-75
2022/01/31 07:35:48;;;;;;;4.97;2.67;;;22.70;57.50;;;;;;5056724;28;20057;-73
2022/01/31 07:38:14;;;;;;;3.70;2.67;;;22.70;57.50;;;;;;5039737;28;20075;-75
2022/01/31 07:40:40;;;;;;;5.68;3.28;;;22.70;57.20;;;;;;5056859;28;20045;-74
2022/01/31 07:43:07;;;;;;;5.35;2.65;;;22.60;57.80;;;;;;5056692;28;20091;-75
2022/01/31 07:45:34;;;;;;;4.78;2.40;;;22.30;57.70;;;;;;5056541;28;20041;-75
2022/01/31 07:48:00;;;;;;;2.60;1.88;;;22.30;58.20;;;;;;5056803;28;20129;-74
2022/01/31 07:50:26;;;;;;;4.05;2.08;;;22.30;58.40;;;;;;5056298;28;20042;-75
2022/01/31 07:52:52;;;;;;;2.58;1.65;;;22.20;57.80;;;;;;5056454;28;20043;-75
2022/01/31 07:55:18;;;;;;;5.07;2.50;;;22.00;58.10;;;;;;5056188;28;20160;-76
2022/01/31 07:57:46;;;;;;;5.75;2.85;;;22.00;58.00;;;;;;5056545;28;20061;-75
2022/01/31 08:00:14;;;;;;;5.78;2.80;;;22.10;58.50;;;;;;5056532;28;20110;-75
2022/01/31 08:02:41;;;;;;;3.05;2.40;;;22.00;60.70;;;;;;5056362;28;20040;-75
2022/01/31 08:05:07;;;;;;;5.57;2.15;;;22.10;60.00;;;;;;5056209;28;20048;-74
2022/01/31 08:07:34;;;;;;;3.75;2.30;;;22.10;59.20;;;;;;5055714;28;20042;-74
2022/01/31 08:10:02;;;;;;;2.85;1.38;;;22.10;58.60;;;;;;5056083;28;20091;-73
2022/01/31 08:12:30;;;;;;;2.80;1.40;;;22.20;58.10;;;;;;5055196;28;20037;-73
2022/01/31 08:15:02;;;;;;;3.97;1.77;;;22.40;57.50;;;;;;5056195;28;20038;-74
2022/01/31 08:17:30;;;;;;;1.92;1.67;;;22.50;57.00;;;;;;5055107;28;20152;-73
2022/01/31 08:19:56;;;;;;;2.47;1.25;;;22.50;56.50;;;;;;5037178;28;20089;-74
2022/01/31 08:22:22;;;;;;;3.30;1.42;;;22.60;57.20;;;;;;5055754;28;20048;-74
2022/01/31 08:24:48;;;;;;;3.53;1.20;;;22.60;56.80;;;;;;5055800;28;20037;-74
2022/01/31 08:27:15;;;;;;;7.25;1.58;;;22.80;55.70;;;;;;5054312;28;20045;-74
2022/01/31 08:29:41;;;;;;;0.45;0.45;;;23.10;53.20;;;;;;5054812;28;20046;-75
2022/01/31 08:32:23;;;;;;;5.38;1.27;;;23.20;51.10;;;;;;5054655;28;20037;-75
2022/01/31 08:37:33;;;;;;;0.35;0.35;;;23.30;49.90;;;;;;5055487;28;20048;-74
2022/01/31 08:39:59;;;;;;;9.15;1.63;;;23.30;51.60;;;;;;5055063;28;20037;-75
2022/01/31 08:42:28;;;;;;;1.92;1.17;;;23.20;49.30;;;;;;5055368;28;20045;-74
2022/01/31 08:44:54;;;;;;;4.45;2.45;;;23.20;48.50;;;;;;5055724;28;20055;-74
2022/01/31 08:47:20;;;;;;;5.85;3.53;;;23.20;42.10;;;;;;5055464;28;20041;-75
2022/01/31 08:49:46;;;;;;;3.15;1.77;;;23.10;38.20;;;;;;5055281;28;20044;-72
2022/01/31 08:52:12;;;;;;;3.40;2.03;;;23.30;46.80;;;;;;5055441;28;20037;-76
2022/01/31 08:54:40;;;;;;;4.43;2.50;;;23.20;42.70;;;;;;5055677;28;20101;-79
2022/01/31 08:57:08;;;;;;;0.85;0.85;;;23.20;39.70;;;;;;5055233;28;20073;-74
2022/01/31 08:59:40;;;;;;;2.90;2.08;;;23.30;50.00;;;;;;5055824;28;20041;-75
2022/01/31 09:02:12;;;;;;;3.63;1.42;;;23.40;46.80;;;;;;5059780;28;20045;-73
2022/01/31 09:04:47;;;;;;;2.95;1.73;;;23.30;43.70;;;;;;5062233;28;20052;-76
2022/01/31 09:07:19;;;;;;;6.22;2.17;;;23.40;46.90;;;;;;5044769;28;20037;-75
2022/01/31 09:09:53;;;;;;;9.18;1.95;;;23.40;44.10;;;;;;5062143;28;20049;-76
2022/01/31 09:12:27;;;;;;;2.15;1.52;;;23.40;46.10;;;;;;5062329;28;20056;-76
2022/01/31 09:14:53;;;;;;;11.52;2.50;;;23.50;54.40;;;;;;5062074;28;20042;-75
2022/01/31 09:17:20;;;;;;;4.13;0.93;;;23.60;53.20;;;;;;5062083;28;20037;-77
2022/01/31 09:19:46;;;;;;;2.47;1.50;;;23.80;51.80;;;;;;5061502;28;20071;-70
2022/01/31 09:22:12;;;;;;;4.10;2.30;;;23.80;47.10;;;;;;5062017;28;20379;-73
2022/01/31 09:24:40;;;;;;;4.45;2.28;;;23.80;43.90;;;;;;5062161;28;20063;-74
2022/01/31 09:27:08;;;;;;;2.95;2.15;;;23.70;42.40;;;;;;5061965;28;20052;-73
2022/01/31 09:29:35;;;;;;;3.30;2.00;;;23.70;39.60;;;;;;5061703;28;20040;-75
2022/01/31 09:32:03;;;;;;;6.70;2.10;;;23.80;42.80;;;;;;5062034;28;20045;-73
2022/01/31 09:34:30;;;;;;;17.13;4.10;;;23.70;38.40;;;;;;5062128;28;20037;-71
2022/01/31 09:36:58;;;;;;;14.85;3.72;;;23.80;41.20;;;;;;5061759;28;20052;-74
2022/01/31 09:39:24;;;;;;;14.85;4.40;;;24.00;45.10;;;;;;5061729;28;20056;-73
2022/01/31 09:41:55;;;;;;;13.10;3.67;;;24.00;56.90;;;;;;5061676;28;20048;-74
2022/01/31 09:44:44;;;;;;;35.75;7.47;;;24.10;41.10;;;;;;5044953;28;20051;-74
2022/01/31 09:47:21;;;;;;;20.90;8.60;;;24.20;57.70;;;;;;5061520;28;20067;-73
2022/01/31 09:49:47;;;;;;;9.23;3.47;;;24.30;42.40;;;;;;5061625;28;20045;-72
2022/01/31 09:52:14;;;;;;;7.75;3.38;;;24.20;40.20;;;;;;5061828;28;20041;-75
2022/01/31 09:54:42;;;;;;;6.35;2.85;;;24.10;37.30;;;;;;5061548;28;20037;-75
2022/01/31 09:57:09;;;;;;;3.20;2.55;;;24.10;46.30;;;;;;5061702;28;20044;-75
2022/01/31 09:59:35;;;;;;;4.85;2.35;;;24.10;48.00;;;;;;5061226;28;20045;-74
2022/01/31 10:02:08;;;;;;;10.18;3.13;;;24.20;49.40;;;;;;5061656;28;20059;-74
2022/01/31 10:04:36;;;;;;;3.83;2.58;;;24.20;47.90;;;;;;5061332;28;20045;-74
2022/01/31 10:07:03;;;;;;;0.95;0.65;;;24.10;49.50;;;;;;5061699;28;20056;-75
2022/01/31 10:09:31;;;;;;;4.13;1.88;;;24.10;51.40;;;;;;5061497;28;20060;-75
2022/01/31 10:12:05;;;;;;;7.45;2.17;;;24.20;50.70;;;;;;5061579;28;20041;-75
2022/01/31 10:17:29;;;;;;;3.88;2.15;;;24.40;56.20;;;;;;5058270;28;20041;-74
2022/01/31 10:20:01;;;;;;;3.13;2.15;;;24.50;60.00;;;;;;5058665;28;20096;-75
2022/01/31 10:22:30;;;;;;;4.72;2.22;;;24.80;62.80;;;;;;5041245;28;20052;-73
2022/01/31 10:25:01;;;;;;;2.72;1.75;;;24.70;56.60;;;;;;5058173;28;20049;-73
2022/01/31 10:27:34;;;;;;;4.45;2.55;;;24.80;58.90;;;;;;5057598;28;20037;-73
2022/01/31 10:30:28;;;;;;;3.22;1.80;;;24.60;56.50;;;;;;5057764;28;20076;-74
2022/01/31 10:32:56;;;;;;;3.88;2.17;;;24.60;53.90;;;;;;5056426;28;20045;-74
2022/01/31 10:35:31;;;;;;;4.65;2.38;;;24.30;53.70;;;;;;5057850;28;20105;-75
2022/01/31 10:38:02;;;;;;;4.07;1.75;;;24.80;61.50;;;;;;5058230;28;20045;-74
2022/01/31 10:46:32;;;;;;;1.85;1.13;;;25.00;34.60;;;;;;5057792;28;20046;-74
2022/01/31 10:56:52;;;;;;;2.42;1.45;;;24.70;32.00;;;;;;5057437;28;20045;-73
2022/01/31 10:59:32;;;;;;;1.00;0.90;;;24.40;39.60;;;;;;5057443;28;20046;-72
2022/01/31 11:02:00;;;;;;;3.05;1.23;;;24.50;46.30;;;;;;5057721;28;20029;-73
2022/01/31 11:04:40;;;;;;;2.30;1.23;;;24.60;48.50;;;;;;5057642;28;20110;-74
2022/01/31 11:07:10;;;;;;;1.60;0.65;;;24.50;51.00;;;;;;5057166;28;20477;-74
2022/01/31 11:09:37;;;;;;;1.65;1.30;;;24.40;48.50;;;;;;5057277;28;20056;-71
2022/01/31 11:12:05;;;;;;;2.50;1.55;;;24.50;52.30;;;;;;5057299;28;20033;-73
2022/01/31 11:14:32;;;;;;;3.47;1.73;;;24.50;50.20;;;;;;5056774;28;20042;-73
2022/01/31 11:17:08;;;;;;;3.03;1.63;;;24.30;50.80;;;;;;5057329;28;20120;-74
2022/01/31 11:19:35;;;;;;;1.88;1.05;;;24.30;52.60;;;;;;5057337;28;20045;-72
2022/01/31 11:22:05;;;;;;;2.55;1.27;;;24.30;54.20;;;;;;5057076;28;20037;-72
2022/01/31 11:24:46;;;;;;;2.63;1.42;;;24.30;53.40;;;;;;5056675;28;20067;-73
2022/01/31 11:27:16;;;;;;;2.05;1.20;;;24.20;54.70;;;;;;5056561;28;20047;-72
2022/01/31 11:29:45;;;;;;;1.80;1.50;;;24.20;55.30;;;;;;5057138;28;20048;-72
2022/01/31 11:32:12;;;;;;;1.50;1.40;;;24.30;55.40;;;;;;5057034;28;20051;-73
2022/01/31 11:34:41;;;;;;;4.20;1.58;;;24.10;55.00;;;;;;5056954;28;20040;-73
2022/01/31 11:37:10;;;;;;;1.45;1.30;;;24.10;53.50;;;;;;5056646;28;20060;-72
2022/01/31 11:39:39;;;;;;;2.60;1.52;;;24.00;52.00;;;;;;5056899;28;20041;-72
2022/01/31 11:42:06;;;;;;;1.13;0.95;;;24.00;53.60;;;;;;5056689;28;20118;-72
2022/01/31 11:44:44;;;;;;;1.65;1.20;;;23.90;53.70;;;;;;5056146;28;20044;-73
2022/01/31 11:47:11;;;;;;;4.80;1.35;;;24.10;51.60;;;;;;5056683;28;20049;-74
2022/01/31 11:49:55;;;;;;;2.13;1.50;;;24.00;49.80;;;;;;5056533;28;20053;-74
2022/01/31 11:52:24;;;;;;;1.33;1.00;;;23.90;52.80;;;;;;5056596;28;20400;-74
2022/01/31 11:54:57;;;;;;;3.15;2.03;;;23.90;55.90;;;;;;5039233;28;20041;-73
2022/01/31 11:57:26;;;;;;;1.55;0.93;;;24.00;54.50;;;;;;5056580;28;20049;-74
2022/01/31 11:59:58;;;;;;;5.72;1.33;;;23.90;55.80;;;;;;5055433;28;20055;-75
2022/01/31 12:02:26;;;;;;;2.03;1.30;;;23.80;52.80;;;;;;5056334;28;20079;-73
2022/01/31 12:04:53;;;;;;;1.77;1.20;;;23.80;55.10;;;;;;5056692;28;20041;-75
2022/01/31 12:07:42;;;;;;;1.25;1.13;;;23.80;53.50;;;;;;5056349;28;20055;-74
2022/01/31 12:10:10;;;;;;;1.65;1.05;;;23.80;54.20;;;;;;5055989;28;20068;-74
2022/01/31 12:18:33;;;;;;;2.67;1.20;;;23.90;53.70;;;;;;5055899;28;20101;-73
2022/01/31 12:24:38;;;;;;;3.90;1.77;;;23.80;53.00;;;;;;5055939;28;20061;-73
2022/01/31 12:27:11;;;;;;;2.45;1.50;;;23.60;53.10;;;;;;5049732;28;20075;-73
2022/01/31 12:29:42;;;;;;;;;;;23.60;53.90;;;;;;5039039;28;20052;-73
2022/01/31 12:32:13;;;;;;;4.25;1.65;;;23.60;53.60;;;;;;5055906;28;19964;-72
2022/01/31 12:34:44;;;;;;;2.67;1.55;;;23.50;54.20;;;;;;5056286;28;20045;-72
2022/01/31 12:37:21;;;;;;;1.80;1.50;;;23.50;54.80;;;;;;5054495;28;20033;-72
2022/01/31 12:40:15;;;;;;;2.58;1.77;;;23.50;54.30;;;;;;5054612;28;20068;-73
2022/01/31 12:43:09;;;;;;;3.20;1.58;;;23.60;54.40;;;;;;5049235;28;20148;-72
2022/01/31 12:45:39;;;;;;;4.40;1.30;;;23.50;54.00;;;;;;5055284;28;20040;-73
2022/01/31 12:48:25;;;;;;;1.73;0.80;;;23.40;54.50;;;;;;5055218;28;20049;-72
2022/01/31 12:50:51;;;;;;;2.03;1.38;;;23.40;53.00;;;;;;5055238;28;20034;-73
2022/01/31 12:53:23;;;;;;;4.28;1.58;;;23.30;52.90;;;;;;5055356;28;20038;-72
2022/01/31 12:56:14;;;;;;;1.67;1.35;;;23.30;54.00;;;;;;5055682;28;20049;-72
2022/01/31 12:58:50;;;;;;;3.17;1.60;;;23.10;54.80;;;;;;5055612;28;20109;-72
2022/01/31 13:01:26;;;;;;;2.55;1.90;;;23.10;54.90;;;;;;5055653;28;20052;-72
2022/01/31 13:04:00;;;;;;;5.45;2.50;;;23.10;55.10;;;;;;5053084;28;20037;-71
2022/01/31 13:06:50;;;;;;;3.92;2.28;;;23.00;55.10;;;;;;5046653;28;20075;-73
2022/01/31 13:09:20;;;;;;;2.00;1.15;;;22.90;55.40;;;;;;5038368;28;20072;-71
2022/01/31 13:11:50;;;;;;;1.58;1.40;;;22.70;55.40;;;;;;5055466;28;20072;-72
2022/01/31 13:14:23;;;;;;;6.47;2.80;;;22.80;55.70;;;;;;5055340;28;20065;-72
2022/01/31 13:17:09;;;;;;;7.72;2.95;;;22.70;55.70;;;;;;5055578;28;20038;-72
2022/01/31 13:19:43;;;;;;;1.70;1.38;;;22.70;55.60;;;;;;5055584;28;20434;-72
2022/01/31 13:22:17;;;;;;;1.95;1.52;;;22.70;55.40;;;;;;5055556;28;20033;-73
2022/01/31 13:24:47;;;;;;;1.80;1.40;;;22.70;55.50;;;;;;5055730;28;20045;-72
2022/01/31 13:27:18;;;;;;;2.22;0.98;;;22.70;55.50;;;;;;5055288;28;20068;-71
2022/01/31 13:29:52;;;;;;;2.45;1.48;;;22.60;55.40;;;;;;5055747;28;20037;-72
2022/01/31 13:32:18;;;;;;;2.30;1.15;;;22.70;55.60;;;;;;5054117;28;20049;-72